Terminal Aerodrome Forecast
Issued by NWS Greer, SC

Home | Current Version | Previous Version | Text Only | Print | Product List | Glossary On
Versions: 1 2 3 4 5 6 7 8 9 10 11 12 13 14 15 16 17 18 19 20 21 22 23 24
000
FTUS42 KGSP 241120
TAFAVL
TAF
KAVL 241120Z 2412/2512 00000KT 1/4SM FG VV001
      TEMPO 2412/2414 1SM BR VV003
     FM241400 VRB02KT P6SM FEW003 SCT070
     FM241700 08003KT P6SM FEW050
     FM250000 VRB02KT P6SM FEW250=

USA.gov is the U.S. government's official web portal to all federal, state and local government web resources and services.